Nyac, Alaska
Current Conditions -  °F | °C
As of 8:56 PM on Saturday 22 Nov 2014 (Local Time) from PALG Reporting Station
Clear Clear  
Wind Chill:   Ceiling: Unl
Heat Index: 16°   Visibility: 10mi
Dew Point:   Wind: 5mph
Humidity: 61%   Direction: NA
Pressure: 29.22"   Gusts: NA
Location:  61°N, 159.94°W
Report Text: PALG 230556Z AUTO VRB04KT 10SM CLR M09/M15 A2922 RMK AO2 TSNO 51012 T10881150 11077 21094 SLP899 $
Loading
Personal Weather Stations






























Interactive Weather Map New forecast layout! Learn more

10-Day Weather Forecast

Advertisements
Track Severe Weather on mobile